Time;durP1;ratioP1;P1;durP2;ratioP2;P2;SDS_P1;SDS_P2;PMS_P1;PMS_P2;Temp;Humidity;BMP_temperature;BMP_pressure;BME280_temperature;BME280_humidity;BME280_pressure;Samples;Min_cycle;Max_cycle;Signal;HPM_P1;HPM_P2
2023/05/26 05:43:56;;;;;;;;;;;;;;;;;;;;;
2023/05/26 06:17:45;;;;;;;;;16.25;14.00;;;;;14.90;61.31;102127.72;6235019;22;45830;-71
2023/05/26 06:20:11;;;;;;;;;19.25;15.00;;;;;15.06;61.86;102162.25;6304613;22;45580;-71
2023/05/26 06:22:37;;;;;;;;;14.00;14.00;;;;;14.98;61.61;102149.00;6305778;22;45253;-71
2023/05/26 06:25:04;;;;;;;;;20.75;15.50;;;;;15.03;61.69;102155.13;6306082;22;45329;-71
2023/05/26 06:27:29;;;;;;;;;27.00;16.75;;;;;15.06;61.71;102152.34;6307178;22;45317;-72
2023/05/26 06:29:54;;;;;;;;;17.75;15.25;;;;;15.09;61.60;102157.66;6307648;22;45346;-73
2023/05/26 06:32:41;;;;;;;;;18.50;15.75;;;;;15.12;61.39;102160.25;6306574;22;45444;-70
2023/05/26 06:36:03;;;;;;;;;;;;;;;;;;;;;
2023/05/26 06:39:14;;;;;;;;;;;;;;;;;;;;;
2023/05/26 06:45:54;;;;;;;;;23.00;20.00;;;;;15.27;61.22;102156.25;6272842;22;45547;-71
2023/05/26 06:59:44;;;;;;;;;20.50;17.75;;;;;15.23;61.82;102167.13;6224622;22;46784;-70
2023/05/26 07:02:12;;;;;;;;;20.50;17.00;;;;;15.27;61.83;102158.94;6227074;22;45710;-69
2023/05/26 07:04:48;;;;;;;;;;;;;;;;;;;;;
2023/05/26 07:07:13;;;;;;;;;22.25;16.25;;;;;15.16;61.86;102128.75;6243489;22;73367;-69
2023/05/26 07:09:39;;;;;;;;;17.75;15.50;;;;;15.35;61.74;102148.81;6243047;22;45662;-68
2023/05/26 07:12:09;;;;;;;;;15.50;13.75;;;;;15.21;61.79;102126.81;6245601;22;45510;-70
2023/05/26 07:14:37;;;;;;;;;17.00;15.00;;;;;15.22;61.68;102120.53;6245455;22;46169;-69
2023/05/26 07:17:09;;;;;;;;;18.00;16.00;;;;;15.30;61.79;102122.97;6245572;22;45405;-69
2023/05/26 07:19:37;;;;;;;;;20.25;17.25;;;;;15.37;61.30;102125.44;6244797;22;45447;-70
2023/05/26 07:22:10;;;;;;;;;19.00;17.25;;;;;15.60;61.63;102152.56;6243783;22;45351;-70
2023/05/26 07:24:35;;;;;;;;;17.50;16.00;;;;;15.50;61.22;102131.34;6244213;22;47520;-70
2023/05/26 07:27:01;;;;;;;;;17.50;15.75;;;;;15.37;61.23;102097.66;6237477;22;45552;-70
2023/05/26 07:29:26;;;;;;;;;19.00;18.00;;;;;15.60;61.06;102125.66;6268358;22;45393;-69
2023/05/26 07:31:52;;;;;;;;;16.75;15.00;;;;;15.59;60.87;102122.09;6241792;22;45369;-64
2023/05/26 07:34:17;;;;;;;;;19.50;17.00;;;;;15.80;61.27;102158.22;6241647;22;60804;-63
2023/05/26 07:36:43;;;;;;;;;20.75;16.50;;;;;15.79;61.22;102148.41;6243357;22;45284;-63
2023/05/26 07:39:08;;;;;;;;;23.00;19.00;;;;;15.93;60.96;102159.59;6244641;22;45672;-63
2023/05/26 07:41:35;;;;;;;;;18.00;17.25;;;;;15.95;60.77;102154.16;6242769;22;45409;-63
2023/05/26 07:44:00;;;;;;;;;21.50;19.50;;;;;15.99;60.61;102149.56;6244179;22;45414;-63
2023/05/26 07:46:25;;;;;;;;;17.75;15.50;;;;;16.09;60.74;102164.50;6233050;22;45362;-63
2023/05/26 07:48:51;;;;;;;;;19.50;16.50;;;;;16.17;60.74;102157.06;6241163;22;51699;-63
2023/05/26 07:51:16;;;;;;;;;20.50;17.75;;;;;16.24;60.65;102158.59;6243419;22;45815;-63
2023/05/26 07:53:41;;;;;;;;;17.00;17.00;;;;;16.33;60.41;102151.16;6243048;22;45623;-63
2023/05/26 07:56:07;;;;;;;;;23.00;20.25;;;;;16.39;60.40;102151.81;6240659;22;45354;-63
2023/05/26 07:58:32;;;;;;;;;20.25;17.25;;;;;16.48;60.04;102150.59;6242209;22;45783;-63
2023/05/26 08:00:57;;;;;;;;;17.75;17.25;;;;;16.57;59.87;102149.41;6242894;22;45556;-63
2023/05/26 08:03:23;;;;;;;;;22.75;17.25;;;;;16.62;59.54;102153.72;6243830;22;46322;-63
2023/05/26 08:05:48;;;;;;;;;20.25;18.75;;;;;16.67;59.58;102143.66;6243235;22;45680;-63
2023/05/26 08:08:14;;;;;;;;;19.25;17.75;;;;;16.77;59.32;102149.59;6244202;22;45453;-63
2023/05/26 08:10:39;;;;;;;;;20.75;19.25;;;;;16.87;59.17;102150.16;6245084;22;45347;-63
2023/05/26 08:13:04;;;;;;;;;18.75;18.00;;;;;16.90;59.08;102144.66;6245114;22;45241;-63
2023/05/26 08:15:30;;;;;;;;;18.00;18.00;;;;;16.96;58.74;102144.44;6241984;22;45284;-63
2023/05/26 08:17:55;;;;;;;;;21.50;21.50;;;;;17.06;58.48;102149.47;6243293;22;45452;-62
2023/05/26 08:20:21;;;;;;;;;21.25;17.00;;;;;17.11;58.70;102151.06;6245468;22;45917;-65
2023/05/26 08:22:46;;;;;;;;;20.50;18.50;;;;;17.12;57.86;102146.56;6244936;22;45294;-64
2023/05/26 08:25:12;;;;;;;;;19.25;17.25;;;;;17.22;57.93;102153.34;6242775;22;45335;-64
2023/05/26 08:27:38;;;;;;;;;22.00;19.75;;;;;17.28;58.55;102153.13;6242765;22;45364;-64
2023/05/26 08:30:04;;;;;;;;;17.25;17.25;;;;;17.28;58.12;102145.03;6244100;22;45476;-63
2023/05/26 08:32:30;;;;;;;;;14.25;14.25;;;;;17.40;58.11;102158.03;6244230;22;45531;-63
2023/05/26 08:34:55;;;;;;;;;19.75;16.00;;;;;17.47;57.87;102144.31;6244809;22;45473;-62
2023/05/26 08:37:20;;;;;;;;;20.00;17.50;;;;;17.57;57.74;102151.13;6244372;22;45239;-62
2023/05/26 08:39:46;;;;;;;;;18.75;17.00;;;;;17.66;57.88;102145.38;6243656;22;45354;-62
2023/05/26 08:42:17;;;;;;;;;14.50;11.25;;;;;17.78;57.34;102144.84;6244487;22;46039;-63
2023/05/26 08:44:44;;;;;;;;;19.00;17.25;;;;;17.82;57.21;102145.59;6243240;22;45886;-64
2023/05/26 08:47:11;;;;;;;;;25.25;20.25;;;;;17.82;56.78;102139.34;6242478;22;45437;-64
2023/05/26 08:49:41;;;;;;;;;17.00;15.00;;;;;17.89;56.51;102151.69;6244297;22;45611;-64
2023/05/26 08:52:10;;;;;;;;;17.25;16.00;;;;;17.90;56.88;102148.91;6243554;22;47387;-64
2023/05/26 08:54:35;;;;;;;;;16.50;13.50;;;;;17.93;56.53;102139.81;6244723;22;45561;-64
2023/05/26 08:57:04;;;;;;;;;22.25;16.50;;;;;18.02;56.75;102136.72;6244775;22;45524;-64
2023/05/26 08:59:31;;;;;;;;;19.50;17.50;;;;;18.12;56.67;102148.03;6241845;22;45570;-63
2023/05/26 09:01:57;;;;;;;;;18.75;18.25;;;;;18.18;55.92;102146.91;6244380;22;45795;-62
2023/05/26 09:04:25;;;;;;;;;21.75;19.00;;;;;18.14;56.13;102120.00;6243154;22;45711;-64
2023/05/26 09:06:50;;;;;;;;;23.50;18.50;;;;;18.22;56.05;102127.78;6237828;22;45432;-64
2023/05/26 09:09:17;;;;;;;;;18.00;16.00;;;;;18.32;56.09;102130.97;6242998;22;45840;-65
2023/05/26 09:11:42;;;;;;;;;19.25;17.50;;;;;18.40;55.63;102142.34;6243940;22;46578;-64
2023/05/26 09:14:11;;;;;;;;;23.00;18.50;;;;;18.46;55.57;102141.19;6244578;22;45738;-64
2023/05/26 09:16:38;;;;;;;;;19.75;18.50;;;;;18.50;55.54;102134.72;6243694;22;45318;-64
2023/05/26 09:19:03;;;;;;;;;24.25;18.75;;;;;18.51;55.22;102142.75;6244266;22;45484;-64
2023/05/26 09:21:30;;;;;;;;;19.25;16.75;;;;;18.57;54.91;102141.59;6244172;22;45958;-66
2023/05/26 09:23:58;;;;;;;;;19.00;18.00;;;;;18.49;55.16;102120.31;6242831;22;45569;-64
2023/05/26 09:26:27;;;;;;;;;17.50;16.50;;;;;18.64;55.07;102136.78;6244513;22;45367;-65
2023/05/26 09:28:53;;;;;;;;;12.75;10.00;;;;;18.65;55.18;102135.88;6245338;22;45252;-64
2023/05/26 09:31:18;;;;;;;;;14.50;14.00;;;;;18.72;55.62;102128.34;6244956;22;45366;-64
2023/05/26 09:33:47;;;;;;;;;17.00;15.75;;;;;18.85;54.74;102146.69;6245981;22;45322;-64
2023/05/26 09:36:15;;;;;;;;;11.25;9.25;;;;;18.92;54.74;102133.78;6245736;22;45322;-64
2023/05/26 09:38:42;;;;;;;;;18.75;16.75;;;;;18.98;54.81;102135.34;6241606;22;45457;-64
2023/05/26 09:41:07;;;;;;;;;21.50;18.00;;;;;18.88;54.54;102118.63;6242853;22;47289;-64
2023/05/26 09:43:33;;;;;;;;;20.75;17.00;;;;;18.95;54.52;102132.78;6241408;22;45307;-64
2023/05/26 09:45:59;;;;;;;;;17.50;14.75;;;;;19.02;54.38;102143.22;6243370;22;45631;-64
2023/05/26 09:48:25;;;;;;;;;20.25;18.50;;;;;19.07;54.55;102138.47;6242720;22;45331;-64
2023/05/26 09:50:51;;;;;;;;;18.50;15.75;;;;;19.11;54.60;102123.00;6243952;22;46459;-64
2023/05/26 09:53:17;;;;;;;;;15.25;13.50;;;;;19.25;53.93;102141.28;6243523;22;45352;-64
2023/05/26 09:55:44;;;;;;;;;18.50;17.00;;;;;19.19;53.96;102118.06;6242946;22;45345;-64
2023/05/26 09:58:11;;;;;;;;;17.00;15.50;;;;;19.33;54.13;102132.78;6243783;22;45260;-64
2023/05/26 10:00:40;;;;;;;;;17.50;15.00;;;;;19.33;53.65;102132.78;6243529;22;46254;-64
2023/05/26 10:03:07;;;;;;;;;20.00;16.00;;;;;19.33;53.89;102132.78;6243462;22;45363;-64
2023/05/26 10:05:33;;;;;;;;;20.25;16.50;;;;;19.38;53.78;102128.06;6244021;22;45394;-64
2023/05/26 10:08:00;;;;;;;;;12.00;11.50;;;;;19.38;53.83;102120.81;6239242;22;45466;-64
2023/05/26 10:10:28;;;;;;;;;18.75;16.25;;;;;19.51;53.63;102140.06;6243484;22;45367;-64
2023/05/26 10:12:54;;;;;;;;;17.75;13.25;;;;;19.51;53.53;102131.94;6242131;22;45590;-65
2023/05/26 10:15:19;;;;;;;;;15.00;13.50;;;;;19.51;53.88;102134.66;6243037;22;45517;-64
2023/05/26 10:17:45;;;;;;;;;16.25;15.00;;;;;19.58;53.52;102127.97;6242773;22;45451;-64
2023/05/26 10:20:11;;;;;;;;;23.25;15.25;;;;;19.63;53.31;102122.34;6245142;22;45525;-64
2023/05/26 10:23:04;;;;;;;;;14.25;13.75;;;;;19.74;53.15;102127.22;6244040;22;45464;-64
2023/05/26 10:25:39;;;;;;;;;16.75;15.25;;;;;19.79;52.68;102139.63;6242416;22;45533;-65
2023/05/26 10:28:33;;;;;;;;;15.75;11.00;;;;;19.78;52.93;102120.75;6239981;22;45355;-64
2023/05/26 10:31:00;;;;;;;;;15.75;14.00;;;;;19.80;53.10;102117.00;6244506;22;45426;-64
2023/05/26 10:33:44;;;;;;;;;16.00;15.25;;;;;19.91;52.87;102127.31;6241713;22;45383;-64
2023/05/26 10:36:16;;;;;;;;;16.75;13.75;;;;;19.95;53.02;102123.50;6245833;22;45331;-64
2023/05/26 10:38:46;;;;;;;;;17.50;15.75;;;;;19.94;52.87;102108.16;6240693;22;45592;-64
2023/05/26 10:41:28;;;;;;;;;16.25;13.25;;;;;20.09;52.97;102125.50;6243858;22;45482;-64
2023/05/26 10:43:53;;;;;;;;;15.75;15.00;;;;;20.11;52.92;102114.56;6244744;22;45284;-64
2023/05/26 10:46:19;;;;;;;;;13.75;12.75;;;;;20.21;52.77;102118.56;6245275;22;45267;-64
2023/05/26 10:48:58;;;;;;;;;14.25;14.25;;;;;20.28;52.65;102121.84;6244640;22;45569;-64
2023/05/26 10:51:29;;;;;;;;;16.00;13.25;;;;;20.36;52.61;102112.38;6243155;22;46650;-64
2023/05/26 10:53:56;;;;;;;;;17.75;17.25;;;;;20.34;52.35;102099.84;6243949;22;45681;-64
2023/05/26 10:56:42;;;;;;;;;13.00;13.00;;;;;20.47;52.45;102108.22;6246074;22;45520;-64
2023/05/26 10:59:08;;;;;;;;;17.25;15.25;;;;;20.43;51.74;102101.19;6245317;22;45521;-64
2023/05/26 11:01:33;;;;;;;;;16.75;15.25;;;;;20.48;51.54;102104.53;6244804;22;45479;-63
2023/05/26 11:04:05;;;;;;;;;15.75;14.00;;;;;20.52;51.90;102106.16;6244679;22;45363;-64
2023/05/26 11:06:48;;;;;;;;;17.25;13.75;;;;;20.58;51.70;102092.28;6245212;22;45315;-63
2023/05/26 11:09:14;;;;;;;;;15.25;13.75;;;;;20.54;51.39;102085.22;6244143;22;45359;-63
2023/05/26 11:11:57;;;;;;;;;17.25;16.00;;;;;20.65;51.15;102096.44;6245565;22;46103;-63
2023/05/26 11:14:29;;;;;;;;;18.50;15.50;;;;;20.70;51.47;102099.78;6244551;22;45392;-64
2023/05/26 11:16:57;;;;;;;;;18.50;16.50;;;;;20.76;51.78;102105.81;6245316;22;45563;-63
2023/05/26 11:19:31;;;;;;;;;17.50;17.00;;;;;20.75;51.63;102087.78;6245690;22;45466;-63
2023/05/26 11:22:00;;;;;;;;;19.00;17.50;;;;;20.80;51.12;102089.31;6245206;22;45794;-63
2023/05/26 11:24:26;;;;;;;;;16.25;14.25;;;;;20.85;51.38;102095.34;6245648;22;45399;-63
2023/05/26 11:26:51;;;;;;;;;17.25;15.50;;;;;20.87;51.40;102085.28;6245179;22;45315;-63
2023/05/26 11:29:21;;;;;;;;;15.00;15.00;;;;;20.98;51.30;102097.38;6245326;22;45356;-63
2023/05/26 11:31:47;;;;;;;;;19.00;17.25;;;;;21.04;51.27;102094.34;6244983;22;46262;-63
2023/05/26 11:34:12;;;;;;;;;14.25;12.00;;;;;21.00;50.38;102077.34;6246093;22;45261;-63
2023/05/26 11:36:39;;;;;;;;;18.50;15.25;;;;;21.05;50.59;102085.25;6246120;22;45224;-63
2023/05/26 11:39:05;;;;;;;;;17.00;16.00;;;;;21.07;50.63;102086.91;6243819;22;45569;-63
2023/05/26 11:41:30;;;;;;;;;17.75;15.25;;;;;21.12;50.56;102083.03;6245331;22;47168;-63
2023/05/26 11:43:56;;;;;;;;;11.75;11.75;;;;;21.14;50.17;102073.00;6244417;22;58766;-63
2023/05/26 11:46:23;;;;;;;;;11.75;10.75;;;;;21.20;50.82;102075.34;6244420;22;45366;-64
2023/05/26 11:48:49;;;;;;;;;16.00;14.50;;;;;21.25;50.45;102078.69;6244906;22;45500;-63
2023/05/26 11:51:20;;;;;;;;;13.75;13.75;;;;;21.31;50.54;102086.50;6234525;22;46742;-63
2023/05/26 11:53:51;;;;;;;;;15.50;14.50;;;;;21.35;50.44;102098.06;6243358;22;45496;-63
2023/05/26 11:56:16;;;;;;;;;22.00;17.00;;;;;21.33;50.27;102086.41;6244219;22;45607;-63
2023/05/26 11:58:45;;;;;;;;;15.00;13.50;;;;;21.38;49.29;102068.88;6243250;22;45463;-63
2023/05/26 12:01:11;;;;;;;;;14.75;13.00;;;;;21.39;50.12;102072.50;6242544;22;46234;-63
2023/05/26 12:03:44;;;;;;;;;18.75;16.75;;;;;21.30;49.71;102044.03;6243290;22;45408;-63
2023/05/26 12:06:21;;;;;;;;;13.00;13.00;;;;;21.37;49.55;102052.69;6244216;22;45332;-64
2023/05/26 12:08:46;;;;;;;;;12.50;12.50;;;;;21.45;49.12;102058.53;6243348;22;45496;-64
2023/05/26 12:11:16;;;;;;;;;16.25;15.25;;;;;21.50;49.84;102059.22;6243063;22;46380;-63
2023/05/26 12:13:41;;;;;;;;;16.75;14.25;;;;;21.48;49.47;102052.09;6243348;22;45410;-64
2023/05/26 12:16:23;;;;;;;;;16.25;15.00;;;;;21.58;49.91;102048.75;6243426;22;45313;-63
2023/05/26 12:18:53;;;;;;;;;15.50;11.25;;;;;21.58;49.53;102051.47;6243378;22;45419;-63
2023/05/26 12:21:19;;;;;;;;;15.50;15.00;;;;;21.65;49.36;102057.41;6244181;22;47012;-63
2023/05/26 12:23:46;;;;;;;;;16.50;13.75;;;;;21.64;49.18;102055.69;6243039;22;45359;-64
2023/05/26 12:26:15;;;;;;;;;16.00;14.50;;;;;21.67;49.17;102044.63;6244531;22;45530;-64
2023/05/26 12:28:42;;;;;;;;;11.00;11.00;;;;;21.64;49.49;102051.13;6244206;22;45461;-63
2023/05/26 12:31:07;;;;;;;;;17.00;15.75;;;;;21.69;49.25;102053.56;6243649;22;46147;-64
2023/05/26 12:33:33;;;;;;;;;13.75;13.75;;;;;21.68;48.63;102046.38;6243566;22;45238;-64
2023/05/26 12:35:58;;;;;;;;;14.25;12.50;;;;;21.70;49.04;102051.72;6245149;22;49333;-64
2023/05/26 12:38:24;;;;;;;;;15.75;14.00;;;;;21.70;49.45;102044.47;6243356;22;45454;-64
2023/05/26 12:40:49;;;;;;;;;17.00;15.25;;;;;21.75;49.41;102044.16;6246308;22;46141;-64
2023/05/26 12:43:14;;;;;;;;;13.00;11.75;;;;;21.77;48.68;102042.25;6245540;22;45314;-64
2023/05/26 12:45:40;;;;;;;;;13.50;13.50;;;;;21.81;48.29;102043.81;6246748;22;45329;-63
2023/05/26 12:48:05;;;;;;;;;15.75;14.25;;;;;21.82;48.45;102038.28;6245879;22;58290;-64
2023/05/26 12:50:31;;;;;;;;;16.25;12.75;;;;;21.89;48.73;102038.78;6245795;22;46156;-64
2023/05/26 12:52:57;;;;;;;;;15.50;15.50;;;;;21.89;48.45;102037.94;6244680;22;45522;-64
2023/05/26 12:55:23;;;;;;;;;16.00;16.00;;;;;21.86;48.77;102027.25;6246879;22;45512;-64
2023/05/26 12:57:49;;;;;;;;;14.75;14.75;;;;;21.87;48.33;102012.66;6244812;22;45401;-63
2023/05/26 13:00:15;;;;;;;;;17.75;13.00;;;;;21.96;48.16;102029.28;6239041;22;45725;-64
2023/05/26 13:02:40;;;;;;;;;11.25;10.25;;;;;21.94;48.27;102019.50;6241997;22;45917;-64
2023/05/26 13:05:06;;;;;;;;;11.75;10.75;;;;;21.97;47.69;102019.31;6241755;22;45436;-65
2023/05/26 13:07:36;;;;;;;;;15.50;14.50;;;;;22.05;47.88;102029.72;6241188;22;45616;-64
2023/05/26 13:10:02;;;;;;;;;14.75;12.50;;;;;22.08;48.03;102021.38;6241989;22;45506;-63
2023/05/26 13:12:27;;;;;;;;;13.25;12.00;;;;;22.05;47.47;102010.69;6241907;22;45430;-64
2023/05/26 13:14:53;;;;;;;;;11.25;11.25;;;;;22.11;47.21;102032.94;6240257;22;45529;-63
2023/05/26 13:17:18;;;;;;;;;14.25;13.50;;;;;22.11;47.58;102016.63;6241765;22;45402;-63
2023/05/26 13:19:44;;;;;;;;;12.00;11.50;;;;;22.12;46.88;102006.59;6242189;22;45947;-63
2023/05/26 13:22:09;;;;;;;;;14.50;12.00;;;;;22.15;47.24;102009.16;6239219;22;45630;-64
2023/05/26 13:24:35;;;;;;;;;12.75;10.50;;;;;22.17;47.44;102009.94;6241715;22;45370;-64
2023/05/26 13:27:00;;;;;;;;;13.50;12.75;;;;;22.17;46.35;102010.81;6241379;22;45755;-64
2023/05/26 13:29:25;;;;;;;;;10.50;10.25;;;;;22.17;46.88;102008.09;6241436;22;46934;-64
2023/05/26 13:31:50;;;;;;;;;11.25;10.75;;;;;22.24;46.32;102015.88;6241975;22;45297;-64
2023/05/26 13:34:16;;;;;;;;;14.50;11.50;;;;;22.25;46.19;102017.63;6241430;22;45300;-64
2023/05/26 13:36:45;;;;;;;;;13.50;13.25;;;;;22.21;45.96;102003.34;6241067;22;45297;-64
2023/05/26 13:39:10;;;;;;;;;10.75;10.75;;;;;22.30;46.64;102010.06;6241815;22;46912;-63
2023/05/26 13:41:36;;;;;;;;;8.50;8.50;;;;;22.30;46.46;102001.91;6236133;22;45484;-64
2023/05/26 13:44:01;;;;;;;;;10.25;10.25;;;;;22.34;46.19;102012.53;6240143;22;45620;-63
2023/05/26 13:46:26;;;;;;;;;10.25;10.25;;;;;22.33;45.10;102004.47;6238102;22;45605;-64
2023/05/26 13:48:52;;;;;;;;;12.75;10.75;;;;;22.36;44.81;102017.88;6238930;22;47920;-64
2023/05/26 13:51:17;;;;;;;;;10.00;9.25;;;;;22.33;45.27;102005.31;6238967;22;45704;-64
2023/05/26 13:53:42;;;;;;;;;15.75;12.00;;;;;22.39;45.12;101998.63;6238411;22;45753;-64
2023/05/26 13:56:08;;;;;;;;;14.00;12.00;;;;;22.39;45.50;101998.63;6240534;22;54258;-64
2023/05/26 13:58:33;;;;;;;;;13.75;13.00;;;;;22.41;45.92;101998.56;6238812;22;48960;-64
2023/05/26 14:00:58;;;;;;;;;17.50;14.75;;;;;22.40;46.08;102000.38;6240212;22;48035;-64
2023/05/26 14:03:23;;;;;;;;;14.75;11.50;;;;;22.41;45.94;101984.94;6240287;22;45543;-64
2023/05/26 14:05:49;;;;;;;;;10.50;10.00;;;;;22.46;46.11;101990.97;6240547;22;49822;-64
2023/05/26 14:08:14;;;;;;;;;13.00;10.50;;;;;22.50;45.89;101984.34;6240746;22;46020;-64
2023/05/26 14:10:39;;;;;;;;;12.75;10.75;;;;;22.52;46.14;101996.91;6236218;22;45522;-64
2023/05/26 14:13:05;;;;;;;;;7.50;7.25;;;;;22.60;45.94;102009.13;6239047;22;45359;-64
2023/05/26 14:15:30;;;;;;;;;12.00;12.00;;;;;22.62;45.63;102004.47;6240231;22;45413;-64
2023/05/26 14:17:56;;;;;;;;;0.50;0.50;;;;;22.60;45.54;102000.97;6239557;22;45672;-64
2023/05/26 14:20:21;;;;;;;;;12.75;11.75;;;;;22.63;45.12;102001.66;6238721;22;45739;-64
2023/05/26 14:22:46;;;;;;;;;10.25;10.00;;;;;22.63;45.26;101998.06;6238859;22;45547;-64
2023/05/26 14:25:12;;;;;;;;;10.50;9.75;;;;;22.58;45.22;101985.59;6241237;22;45271;-64
2023/05/26 14:27:38;;;;;;;;;11.00;11.00;;;;;22.69;45.75;101990.38;6237841;22;49261;-63
2023/05/26 14:30:04;;;;;;;;;10.25;10.00;;;;;22.71;45.22;101982.97;6238683;22;45710;-64
2023/05/26 14:32:29;;;;;;;;;12.75;12.00;;;;;22.68;44.53;101979.59;6238611;22;45648;-63
2023/05/26 14:34:55;;;;;;;;;9.00;8.00;;;;;22.67;43.96;101977.81;6239186;22;45768;-63
2023/05/26 14:37:20;;;;;;;;;9.75;9.25;;;;;22.66;44.37;101976.97;6238341;22;55486;-63
2023/05/26 14:39:45;;;;;;;;;10.00;10.00;;;;;22.70;44.21;101977.63;6238256;22;45872;-63
2023/05/26 14:42:11;;;;;;;;;6.75;6.00;;;;;22.69;44.55;101986.78;6239815;22;45449;-63
2023/05/26 14:44:36;;;;;;;;;18.50;14.00;;;;;22.72;44.72;101989.28;6240751;22;45706;-63
2023/05/26 14:47:01;;;;;;;;;8.75;8.75;;;;;22.69;44.32;101978.63;6240665;22;45680;-63
2023/05/26 14:49:27;;;;;;;;;11.00;9.75;;;;;22.66;44.54;101976.09;6241431;22;45748;-63
2023/05/26 14:51:52;;;;;;;;;10.00;7.50;;;;;22.72;44.77;101982.03;6240744;22;46100;-63
2023/05/26 14:54:19;;;;;;;;;8.25;8.00;;;;;22.70;44.46;101969.47;6240808;22;45406;-63
2023/05/26 14:56:44;;;;;;;;;14.75;12.25;;;;;22.69;44.31;101971.31;6242476;22;45455;-64
2023/05/26 14:59:10;;;;;;;;;12.00;11.00;;;;;22.70;45.10;101956.75;6245903;22;45299;-64
2023/05/26 15:01:35;;;;;;;;;9.00;9.00;;;;;22.82;44.90;101981.41;6244202;22;45337;-64
2023/05/26 15:04:00;;;;;;;;;9.75;9.75;;;;;22.79;44.44;101968.00;6245779;22;45529;-64
2023/05/26 15:06:27;;;;;;;;;14.75;11.00;;;;;22.78;44.52;101972.56;6245676;22;46421;-64
2023/05/26 15:08:54;;;;;;;;;10.25;9.25;;;;;22.85;44.22;101973.91;6245131;22;45451;-64
2023/05/26 15:11:20;;;;;;;;;11.00;11.00;;;;;22.86;44.64;101966.66;6245712;22;45392;-64
2023/05/26 15:13:45;;;;;;;;;12.75;12.25;;;;;22.86;44.13;101963.94;6245188;22;45482;-64
2023/05/26 15:16:10;;;;;;;;;11.25;10.00;;;;;22.87;44.64;101958.38;6244991;22;49369;-64
2023/05/26 15:18:36;;;;;;;;;12.50;10.00;;;;;22.94;44.50;101975.19;6244324;22;45572;-64
2023/05/26 15:21:02;;;;;;;;;13.00;10.00;;;;;22.88;44.29;101951.09;6245110;22;45367;-64
2023/05/26 15:23:29;;;;;;;;;10.25;9.25;;;;;22.94;43.88;101962.44;6237423;22;45753;-64
2023/05/26 15:25:54;;;;;;;;;11.50;11.00;;;;;22.97;43.93;101968.66;6243975;22;46021;-64
2023/05/26 15:28:21;;;;;;;;;12.00;11.25;;;;;23.01;44.57;101964.78;6244270;22;45618;-64
2023/05/26 15:30:46;;;;;;;;;10.75;9.50;;;;;23.00;44.11;101958.44;6244652;22;45611;-64
2023/05/26 15:33:11;;;;;;;;;13.00;10.75;;;;;22.99;44.61;101953.09;6244318;22;45311;-64
2023/05/26 15:35:37;;;;;;;;;10.50;9.00;;;;;22.94;44.57;101942.53;6244453;22;46837;-64
2023/05/26 15:38:02;;;;;;;;;12.00;9.50;;;;;22.95;44.64;101952.41;6244432;22;45479;-64
2023/05/26 15:40:27;;;;;;;;;11.00;11.00;;;;;23.01;44.16;101957.47;6245242;22;47092;-64
2023/05/26 15:42:53;;;;;;;;;10.00;9.75;;;;;23.03;44.56;101957.38;6243975;22;45730;-64
2023/05/26 15:45:18;;;;;;;;;10.25;10.00;;;;;23.03;44.15;101950.06;6245565;22;46164;-64
2023/05/26 15:47:43;;;;;;;;;11.00;10.00;;;;;23.03;44.42;101943.75;6236908;22;45317;-64
2023/05/26 15:50:12;;;;;;;;;11.00;11.00;;;;;23.01;44.31;101932.09;6243678;22;45336;-64
2023/05/26 15:52:37;;;;;;;;;12.50;11.50;;;;;23.02;44.34;101939.28;6242893;22;45270;-64
2023/05/26 15:55:03;;;;;;;;;11.00;10.50;;;;;23.03;44.58;101935.59;6244208;22;46191;-64
2023/05/26 15:57:28;;;;;;;;;10.50;8.50;;;;;23.03;44.59;101930.13;6243845;22;45543;-64
2023/05/26 15:59:53;;;;;;;;;12.00;9.25;;;;;23.03;44.62;101932.88;6244196;22;45346;-64
2023/05/26 16:02:22;;;;;;;;;12.25;11.25;;;;;23.08;44.83;101947.06;6244297;22;45565;-64
2023/05/26 16:04:47;;;;;;;;;14.75;11.25;;;;;23.06;43.96;101944.44;6244361;22;46341;-64
2023/05/26 16:07:12;;;;;;;;;10.50;6.50;;;;;23.07;44.43;101939.88;6243950;22;45361;-64
2023/05/26 16:09:38;;;;;;;;;13.50;12.25;;;;;23.06;44.58;101935.38;6245382;22;45300;-64
2023/05/26 16:12:03;;;;;;;;;14.50;9.75;;;;;23.07;44.44;101939.88;6244391;22;55065;-64
2023/05/26 16:14:28;;;;;;;;;14.25;10.75;;;;;23.04;44.42;101940.94;6244796;22;45532;-64
2023/05/26 16:16:54;;;;;;;;;13.50;12.50;;;;;22.96;44.41;101918.78;6244791;22;45805;-64
2023/05/26 16:19:19;;;;;;;;;10.00;8.75;;;;;23.01;43.98;101937.53;6246002;22;45505;-64
2023/05/26 16:21:45;;;;;;;;;3.50;2.50;;;;;22.99;44.84;101936.75;6245876;22;45330;-64
2023/05/26 16:24:10;;;;;;;;;12.50;12.25;;;;;22.96;44.30;101924.22;6240024;22;46311;-64
2023/05/26 16:26:35;;;;;;;;;10.75;10.75;;;;;22.96;44.45;101926.09;6244753;22;45406;-64
2023/05/26 16:29:01;;;;;;;;;9.75;8.75;;;;;22.92;44.68;101919.94;6245554;22;45315;-64
2023/05/26 16:31:27;;;;;;;;;10.50;10.00;;;;;22.98;44.75;101935.03;6243774;22;45482;-64
2023/05/26 16:33:52;;;;;;;;;9.25;8.75;;;;;22.93;44.52;101918.97;6245449;22;46184;-64
2023/05/26 16:36:17;;;;;;;;;13.00;11.25;;;;;22.98;44.49;101927.72;6245352;22;45389;-64
2023/05/26 16:38:45;;;;;;;;;11.00;9.75;;;;;22.90;44.68;101909.19;6245250;22;45323;-64
2023/05/26 16:41:10;;;;;;;;;12.50;10.00;;;;;23.01;44.08;101929.38;6245398;22;45527;-64
2023/05/26 16:43:36;;;;;;;;;9.50;9.00;;;;;23.00;44.39;101927.63;6243678;22;47797;-64
2023/05/26 16:46:01;;;;;;;;;10.25;10.25;;;;;22.96;44.36;101921.50;6245444;22;45274;-64
2023/05/26 16:48:26;;;;;;;;;12.00;11.50;;;;;23.00;44.17;101942.09;6245004;22;45523;-64
2023/05/26 16:50:52;;;;;;;;;11.75;9.75;;;;;22.99;44.08;101926.75;6245514;22;46927;-64
2023/05/26 16:53:17;;;;;;;;;13.25;12.00;;;;;22.94;43.99;101926.19;6243670;22;46175;-64
2023/05/26 16:55:42;;;;;;;;;9.75;8.00;;;;;22.94;43.68;101934.34;6245785;22;50885;-64
2023/05/26 16:58:08;;;;;;;;;12.75;10.00;;;;;22.90;43.44;101935.50;6246273;22;51273;-64
2023/05/26 17:00:33;;;;;;;;;10.25;9.75;;;;;22.81;43.94;101925.25;6246017;22;45458;-64
2023/05/26 17:02:58;;;;;;;;;9.50;9.50;;;;;22.85;44.41;101930.34;6244366;22;45884;-64
2023/05/26 17:05:24;;;;;;;;;12.75;11.50;;;;;22.77;44.13;101927.28;6240782;22;45920;-63
2023/05/26 17:07:50;;;;;;;;;13.00;9.75;;;;;22.75;44.57;101929.22;6241208;22;45452;-63
2023/05/26 17:10:17;;;;;;;;;12.00;9.25;;;;;22.79;43.86;101933.50;6241404;22;45430;-63
2023/05/26 17:12:43;;;;;;;;;14.75;11.75;;;;;22.74;44.15;101935.66;6241667;22;46453;-63
2023/05/26 17:15:08;;;;;;;;;14.75;12.50;;;;;22.67;43.82;101921.56;6240705;22;45764;-63
2023/05/26 17:17:35;;;;;;;;;12.25;11.00;;;;;22.68;44.42;101927.88;6242059;22;45442;-63
2023/05/26 17:20:00;;;;;;;;;11.00;11.00;;;;;22.68;44.34;101933.31;6241079;22;45721;-63
2023/05/26 17:22:26;;;;;;;;;17.50;13.75;;;;;22.68;44.01;101928.75;6240783;22;45886;-63
2023/05/26 17:24:51;;;;;;;;;13.25;9.50;;;;;22.68;43.93;101926.03;6241408;22;45345;-63
2023/05/26 17:27:17;;;;;;;;;14.75;10.00;;;;;22.67;43.95;101934.28;6241590;22;45559;-64
2023/05/26 17:29:42;;;;;;;;;11.00;10.75;;;;;22.67;44.13;101924.28;6240886;22;45416;-64
2023/05/26 17:32:08;;;;;;;;;14.00;11.50;;;;;22.64;44.06;101923.63;6241000;22;45823;-64
2023/05/26 17:34:33;;;;;;;;;13.00;10.25;;;;;22.61;43.80;101931.97;6241900;22;45260;-64
2023/05/26 17:36:58;;;;;;;;;12.50;10.50;;;;;22.58;44.29;101923.03;6240283;22;45778;-64
2023/05/26 17:39:24;;;;;;;;;11.00;9.00;;;;;22.64;43.85;101934.50;6242306;22;45685;-63
2023/05/26 17:41:49;;;;;;;;;15.00;13.00;;;;;22.64;43.81;101937.22;6242047;22;45837;-63
2023/05/26 17:44:15;;;;;;;;;14.00;11.00;;;;;22.61;43.71;101942.88;6240058;22;45441;-65
2023/05/26 17:46:40;;;;;;;;;12.75;12.00;;;;;22.56;43.73;101933.13;6240910;22;45433;-65